createdAt,value
2023-05-12T00:00:27.790Z,0.20
2023-05-12T00:02:56.748Z,0.20
2023-05-12T00:05:24.962Z,0.20
2023-05-12T00:07:52.968Z,0.20
2023-05-12T00:10:22.404Z,0.20
2023-05-12T00:12:50.776Z,0.20
2023-05-12T00:15:20.334Z,0.20
2023-05-12T00:17:48.676Z,0.20
2023-05-12T00:20:18.053Z,0.20
2023-05-12T00:22:48.235Z,0.20
2023-05-12T00:25:16.380Z,0.20
2023-05-12T00:27:45.800Z,0.20
2023-05-12T00:30:14.216Z,0.20
2023-05-12T00:32:43.580Z,0.20
2023-05-12T00:35:11.752Z,0.20
2023-05-12T00:37:39.753Z,0.20
2023-05-12T00:40:10.381Z,0.20
2023-05-12T00:42:38.266Z,0.20
2023-05-12T00:45:11.851Z,0.20
2023-05-12T00:47:40.553Z,0.20
2023-05-12T00:50:10.238Z,0.30
2023-05-12T00:52:38.139Z,0.20
2023-05-12T00:55:07.695Z,0.20
2023-05-12T00:57:35.710Z,0.20
2023-05-12T01:00:05.174Z,0.30
2023-05-12T01:02:34.972Z,0.20
2023-05-12T01:05:03.640Z,0.20
2023-05-12T01:07:34.198Z,0.20
2023-05-12T01:10:02.214Z,0.30
2023-05-12T01:12:32.546Z,0.20
2023-05-12T01:15:01.125Z,0.20
2023-05-12T01:17:33.310Z,0.23
2023-05-12T01:20:04.667Z,0.30
2023-05-12T01:22:34.077Z,0.20
2023-05-12T01:25:04.770Z,0.20
2023-05-12T01:27:35.622Z,0.20
2023-05-12T01:30:07.158Z,0.20
2023-05-12T01:32:35.863Z,0.30
2023-05-12T01:35:03.822Z,0.20
2023-05-12T01:37:31.874Z,0.20
2023-05-12T01:40:00.795Z,0.20
2023-05-12T01:42:29.843Z,0.20
2023-05-12T01:44:59.151Z,0.20
2023-05-12T01:47:27.111Z,0.20
2023-05-12T01:49:54.984Z,0.20
2023-05-12T01:52:23.248Z,0.20
2023-05-12T01:54:51.445Z,0.20
2023-05-12T01:57:19.388Z,0.20
2023-05-12T01:59:47.378Z,0.20
2023-05-12T02:02:16.717Z,0.20
2023-05-12T02:04:44.722Z,0.20
2023-05-12T02:07:12.634Z,0.20
2023-05-12T02:09:40.649Z,0.20
2023-05-12T02:12:10.068Z,0.20
2023-05-12T02:14:38.023Z,0.20
2023-05-12T02:17:06.022Z,0.20
2023-05-12T02:19:35.456Z,0.20
2023-05-12T02:22:03.622Z,0.20
2023-05-12T02:24:31.820Z,0.20
2023-05-12T02:26:59.911Z,0.20
2023-05-12T02:29:27.895Z,0.20
2023-05-12T02:31:56.065Z,0.20
2023-05-12T02:34:24.068Z,0.20
2023-05-12T02:36:55.982Z,0.20
2023-05-12T02:39:23.927Z,0.20
2023-05-12T02:41:51.990Z,0.20
2023-05-12T02:44:22.385Z,0.20
2023-05-12T02:46:50.373Z,0.20
2023-05-12T02:49:18.454Z,0.20
2023-05-12T02:51:46.700Z,0.20
2023-05-12T02:54:16.341Z,0.20
2023-05-12T02:56:44.309Z,0.27
2023-05-12T02:59:12.386Z,0.20
2023-05-12T03:01:40.526Z,0.20
2023-05-12T03:04:08.763Z,0.20
2023-05-12T03:06:36.810Z,0.30
2023-05-12T03:09:05.238Z,0.20
2023-05-12T03:11:34.824Z,0.20
2023-05-12T03:14:03.825Z,0.20
2023-05-12T03:16:32.930Z,0.30
2023-05-12T03:19:00.827Z,0.20
2023-05-12T03:21:29.307Z,0.20
2023-05-12T03:23:57.871Z,0.20
2023-05-12T03:26:25.921Z,0.20
2023-05-12T03:28:57.756Z,0.20
2023-05-12T03:31:26.130Z,0.20
2023-05-12T03:33:54.176Z,0.20
2023-05-12T03:36:22.498Z,0.10
2023-05-12T03:38:51.088Z,0.20
2023-05-12T03:41:22.095Z,0.20
2023-05-12T03:43:51.201Z,0.20
2023-05-12T03:46:20.860Z,0.20
2023-05-12T03:48:49.284Z,0.20
2023-05-12T03:51:18.409Z,0.30
2023-05-12T03:53:47.801Z,0.20
2023-05-12T03:56:17.304Z,0.20
2023-05-12T03:58:49.963Z,0.20
2023-05-12T04:01:17.914Z,0.13
2023-05-12T04:03:47.531Z,0.20
2023-05-12T04:06:15.815Z,0.20
2023-05-12T04:08:43.696Z,0.30
2023-05-12T04:11:11.565Z,0.20
2023-05-12T04:13:39.478Z,0.30
2023-05-12T04:16:22.906Z,0.20
2023-05-12T04:19:01.038Z,0.20
2023-05-12T04:21:43.237Z,0.20
2023-05-12T04:24:13.261Z,0.20
2023-05-12T04:26:48.122Z,0.20
2023-05-12T04:29:15.960Z,0.20
2023-05-12T04:31:43.897Z,0.20
2023-05-12T04:34:14.352Z,0.20
2023-05-12T04:36:45.502Z,0.30
2023-05-12T04:39:13.995Z,0.20
2023-05-12T04:41:42.751Z,0.20
2023-05-12T04:44:10.721Z,0.13
2023-05-12T04:46:41.515Z,0.20
2023-05-12T04:49:09.595Z,0.20
2023-05-12T04:51:42.411Z,0.20
2023-05-12T04:54:10.834Z,0.20
2023-05-12T04:56:39.854Z,0.20
2023-05-12T04:59:07.784Z,0.20
2023-05-12T05:01:37.811Z,0.20
2023-05-12T05:04:06.262Z,0.20
2023-05-12T05:06:34.537Z,0.27
2023-05-12T05:09:04.022Z,0.20
2023-05-12T05:11:32.114Z,0.20
2023-05-12T05:14:00.239Z,0.20
2023-05-12T05:16:28.223Z,0.20
2023-05-12T05:18:59.000Z,0.20
2023-05-12T05:21:27.023Z,0.20
2023-05-12T05:23:55.030Z,0.30
2023-05-12T05:26:25.091Z,0.20
2023-05-12T05:28:55.087Z,0.20
2023-05-12T05:31:23.353Z,0.20
2023-05-12T05:33:51.247Z,0.20
2023-05-12T05:36:19.344Z,0.20
2023-05-12T05:38:47.358Z,0.20
2023-05-12T05:41:16.271Z,0.20
2023-05-12T05:43:45.611Z,0.20
2023-05-12T05:46:14.707Z,0.20
2023-05-12T05:48:42.824Z,0.30
2023-05-12T05:51:11.542Z,0.20
2023-05-12T05:53:39.563Z,0.20
2023-05-12T05:56:07.927Z,0.20
2023-05-12T05:58:35.834Z,0.20
2023-05-12T06:01:05.793Z,0.20
2023-05-12T06:03:34.001Z,0.20
2023-05-12T06:06:02.188Z,0.20
2023-05-12T06:08:30.252Z,0.20
2023-05-12T06:10:59.142Z,0.20
2023-05-12T06:13:27.168Z,0.20
2023-05-12T06:15:55.269Z,0.20
2023-05-12T06:18:25.042Z,0.20
2023-05-12T06:20:55.093Z,0.20
2023-05-12T06:23:23.201Z,0.20
2023-05-12T06:25:51.199Z,0.20
2023-05-12T06:28:19.303Z,0.20
2023-05-12T06:30:47.413Z,0.20
2023-05-12T06:33:15.523Z,0.20
2023-05-12T06:35:44.984Z,0.20
2023-05-12T06:38:13.260Z,0.20
2023-05-12T06:40:41.289Z,0.20
2023-05-12T06:43:11.560Z,0.20
2023-05-12T06:45:39.594Z,0.20
2023-05-12T06:48:09.489Z,0.20
2023-05-12T06:50:38.013Z,0.20
2023-05-12T06:53:08.359Z,0.20
2023-05-12T06:55:40.382Z,0.20
2023-05-12T06:58:08.962Z,0.20
2023-05-12T07:00:36.855Z,0.20
2023-05-12T07:03:05.367Z,0.30
2023-05-12T07:05:33.708Z,0.20
2023-05-12T07:08:02.184Z,0.20
2023-05-12T07:10:31.889Z,0.20
2023-05-12T07:13:00.861Z,0.20
2023-05-12T07:15:30.078Z,0.20
2023-05-12T07:18:01.026Z,0.20
2023-05-12T07:20:29.130Z,0.20
2023-05-12T07:22:57.119Z,0.20
2023-05-12T07:25:25.424Z,0.20
2023-05-12T07:27:54.809Z,0.20
2023-05-12T07:30:22.993Z,0.20
2023-05-12T07:32:51.087Z,0.20
2023-05-12T07:35:19.385Z,0.20
2023-05-12T07:37:47.593Z,0.20
2023-05-12T07:40:15.756Z,0.20
2023-05-12T07:42:43.745Z,0.20
2023-05-12T07:45:14.245Z,0.20
2023-05-12T07:47:42.633Z,0.20
2023-05-12T07:50:11.119Z,0.20
2023-05-12T07:52:49.299Z,0.10
2023-05-12T07:55:18.062Z,0.20
2023-05-12T07:57:46.204Z,0.20
2023-05-12T08:00:16.730Z,0.20
2023-05-12T08:02:45.916Z,0.20
2023-05-12T08:05:14.640Z,0.20
2023-05-12T08:07:46.356Z,0.20
2023-05-12T08:10:30.020Z,0.20
2023-05-12T08:15:55.985Z,0.20
2023-05-12T08:18:34.371Z,0.20
2023-05-12T08:21:12.147Z,0.20
2023-05-12T08:23:42.384Z,0.20
2023-05-12T08:26:11.669Z,0.20
2023-05-12T08:28:44.402Z,0.20
2023-05-12T08:31:18.769Z,0.20
2023-05-12T08:33:51.872Z,0.20
2023-05-12T08:36:23.578Z,0.20
2023-05-12T08:38:53.620Z,0.20
2023-05-12T08:41:33.588Z,0.20
2023-05-12T08:44:03.380Z,0.20
2023-05-12T08:46:43.319Z,0.20
2023-05-12T08:52:01.053Z,0.20
2023-05-12T08:54:32.537Z,0.20
2023-05-12T08:57:10.304Z,0.20
2023-05-12T08:59:45.856Z,0.20
2023-05-12T09:02:22.978Z,0.20
2023-05-12T09:04:55.562Z,0.20
2023-05-12T09:07:36.607Z,0.20
2023-05-12T09:10:29.885Z,0.20
2023-05-12T09:13:05.808Z,0.20
2023-05-12T09:15:38.461Z,0.20
2023-05-12T09:18:08.027Z,0.20
2023-05-12T09:20:36.309Z,0.20
2023-05-12T09:23:16.982Z,0.20
2023-05-12T09:25:47.028Z,0.20
2023-05-12T09:28:16.758Z,0.10
2023-05-12T09:30:44.938Z,0.10
2023-05-12T09:33:15.825Z,0.10
2023-05-12T09:35:48.313Z,0.13
2023-05-12T09:38:17.509Z,0.10
2023-05-12T09:40:47.248Z,0.10
2023-05-12T09:43:17.463Z,0.10
2023-05-12T09:45:47.644Z,0.10
2023-05-12T09:48:17.511Z,0.10
2023-05-12T09:50:48.405Z,0.10
2023-05-12T09:53:19.289Z,0.00
2023-05-12T09:55:49.072Z,0.10
2023-05-12T09:58:18.914Z,0.10
2023-05-12T10:03:23.816Z,0.10
2023-05-12T10:05:59.137Z,0.10
2023-05-12T10:08:33.499Z,0.10
2023-05-12T10:11:03.798Z,0.10
2023-05-12T10:13:33.631Z,0.00
2023-05-12T10:16:02.695Z,0.00
2023-05-12T10:18:34.514Z,0.00
2023-05-12T10:21:03.553Z,0.00
2023-05-12T10:23:32.218Z,0.00
2023-05-12T10:26:02.315Z,0.00
2023-05-12T10:28:30.969Z,0.00
2023-05-12T10:31:00.807Z,0.00
2023-05-12T10:33:28.966Z,0.00
2023-05-12T10:35:58.965Z,0.00
2023-05-12T10:38:27.100Z,0.00
2023-05-12T10:40:58.231Z,0.00
2023-05-12T10:43:36.709Z,0.00
2023-05-12T10:46:09.430Z,0.00
2023-05-12T10:48:39.086Z,0.00
2023-05-12T10:51:12.408Z,0.00
2023-05-12T10:53:50.038Z,0.00
2023-05-12T10:56:26.143Z,0.00
2023-05-12T10:59:14.093Z,0.00
2023-05-12T11:01:48.179Z,0.00
2023-05-12T11:04:20.400Z,0.00
2023-05-12T11:06:59.862Z,0.10
2023-05-12T11:09:29.555Z,0.10
2023-05-12T11:11:58.593Z,0.00
2023-05-12T11:14:26.800Z,0.00
2023-05-12T11:16:54.845Z,0.00
2023-05-12T11:19:22.796Z,0.00
2023-05-12T11:21:52.850Z,0.00
2023-05-12T11:24:23.390Z,0.00
2023-05-12T11:26:52.338Z,0.00
2023-05-12T11:29:20.660Z,0.00
2023-05-12T11:31:49.840Z,0.00
2023-05-12T11:34:23.532Z,0.00
2023-05-12T11:36:54.763Z,0.00
2023-05-12T11:39:24.010Z,0.00
2023-05-12T11:41:59.301Z,0.00
2023-05-12T11:44:33.853Z,0.00
2023-05-12T11:47:03.400Z,0.00
2023-05-12T11:49:32.703Z,0.00
2023-05-12T11:52:05.548Z,0.10
2023-05-12T11:54:33.468Z,0.00
2023-05-12T11:57:01.576Z,0.00
2023-05-12T11:59:30.924Z,0.00
2023-05-12T12:01:59.357Z,0.00
2023-05-12T12:04:40.454Z,0.00
2023-05-12T12:07:10.853Z,0.00
2023-05-12T12:09:41.635Z,0.00
2023-05-12T12:12:11.831Z,0.00
2023-05-12T12:14:41.524Z,0.00
2023-05-12T12:17:09.727Z,0.00
2023-05-12T12:19:38.882Z,0.00
2023-05-12T12:22:14.264Z,0.00
2023-05-12T12:24:43.231Z,0.00
2023-05-12T12:27:11.159Z,0.00
2023-05-12T12:29:40.006Z,0.00
2023-05-12T12:32:09.110Z,0.03
2023-05-12T12:34:37.562Z,0.00
2023-05-12T12:37:06.540Z,0.00
2023-05-12T12:39:35.930Z,0.00
2023-05-12T12:42:04.765Z,0.00
2023-05-12T12:44:32.989Z,0.00
2023-05-12T12:47:00.892Z,0.00
2023-05-12T12:49:29.045Z,0.00
2023-05-12T12:51:57.183Z,0.05
2023-05-12T12:54:27.163Z,0.00
2023-05-12T12:56:58.772Z,0.00
2023-05-12T12:59:27.072Z,0.00
2023-05-12T13:01:54.967Z,0.00
2023-05-12T13:04:23.534Z,0.00
2023-05-12T13:06:51.512Z,0.00
2023-05-12T13:09:20.191Z,0.00
2023-05-12T13:11:48.379Z,0.00
2023-05-12T13:14:17.845Z,0.00
2023-05-12T13:16:46.425Z,0.00
2023-05-12T13:19:18.861Z,0.00
2023-05-12T13:21:46.703Z,0.00
2023-05-12T13:24:15.691Z,0.00
2023-05-12T13:26:43.766Z,0.00
2023-05-12T13:29:11.824Z,0.00
2023-05-12T13:31:42.668Z,0.00
2023-05-12T13:34:10.802Z,0.00
2023-05-12T13:36:38.889Z,0.00
2023-05-12T13:39:07.092Z,0.00
2023-05-12T13:41:34.983Z,0.00
2023-05-12T13:44:03.154Z,0.00
2023-05-12T13:46:33.162Z,0.10
2023-05-12T13:49:03.465Z,0.10
2023-05-12T13:52:01.186Z,0.10
2023-05-12T13:54:29.199Z,0.10
2023-05-12T13:57:04.114Z,0.10
2023-05-12T13:59:38.100Z,0.00
2023-05-12T14:02:30.273Z,0.00
2023-05-12T14:05:22.519Z,0.00
2023-05-12T14:07:58.291Z,0.00
2023-05-12T14:10:26.236Z,0.03
2023-05-12T14:12:54.269Z,0.00
2023-05-12T14:15:36.123Z,0.10
2023-05-12T14:18:09.407Z,0.10
2023-05-12T14:20:39.402Z,0.10
2023-05-12T14:23:07.898Z,0.10
2023-05-12T14:25:35.866Z,0.10
2023-05-12T14:28:04.330Z,0.10
2023-05-12T14:30:34.986Z,0.10
2023-05-12T14:33:03.076Z,0.10
2023-05-12T14:35:31.372Z,0.10
2023-05-12T14:38:00.847Z,0.17
2023-05-12T14:40:28.946Z,0.07
2023-05-12T14:42:57.136Z,0.10
2023-05-12T14:45:26.727Z,0.10
2023-05-12T14:47:54.936Z,0.10
2023-05-12T14:50:23.367Z,0.10
2023-05-12T14:52:51.528Z,0.03
2023-05-12T14:55:21.318Z,0.10
2023-05-12T14:57:50.989Z,0.10
2023-05-12T15:00:21.275Z,0.00
2023-05-12T15:02:49.555Z,0.10
2023-05-12T15:05:17.923Z,0.00
2023-05-12T15:07:45.795Z,0.03
2023-05-12T15:10:13.714Z,0.00
2023-05-12T15:12:43.150Z,0.00
2023-05-12T15:15:14.792Z,0.00
2023-05-12T15:17:47.754Z,0.00
2023-05-12T15:20:21.619Z,0.00
2023-05-12T15:22:50.868Z,0.00
2023-05-12T15:25:22.253Z,0.00
2023-05-12T15:27:55.306Z,0.00
2023-05-12T15:30:23.326Z,0.00
2023-05-12T15:32:51.272Z,0.00
2023-05-12T15:35:19.624Z,0.00
2023-05-12T15:37:47.863Z,0.00
2023-05-12T15:40:16.840Z,0.00
2023-05-12T15:42:44.733Z,0.00
2023-05-12T15:45:14.268Z,0.05
2023-05-12T15:47:42.254Z,0.05
2023-05-12T15:50:11.517Z,0.00
2023-05-12T15:52:39.483Z,0.00
2023-05-12T15:55:07.828Z,0.00
2023-05-12T15:57:35.896Z,0.00
2023-05-12T16:00:03.995Z,0.00
2023-05-12T16:02:33.549Z,0.00
2023-05-12T16:05:01.507Z,0.00
2023-05-12T16:07:31.055Z,0.00
2023-05-12T16:09:59.622Z,0.10
2023-05-12T16:12:27.621Z,0.10
2023-05-12T16:14:55.428Z,0.10
2023-05-12T16:17:23.350Z,0.10
2023-05-12T16:19:53.555Z,0.10
2023-05-12T16:22:21.489Z,0.10
2023-05-12T16:24:49.604Z,0.10
2023-05-12T16:27:17.421Z,0.10
2023-05-12T16:29:47.324Z,0.10
2023-05-12T16:32:15.358Z,0.10
2023-05-12T16:34:43.362Z,0.10
2023-05-12T16:37:12.702Z,0.00
2023-05-12T16:39:43.806Z,0.00
2023-05-12T16:42:11.790Z,0.00
2023-05-12T16:44:39.613Z,0.00
2023-05-12T16:47:07.913Z,0.00
2023-05-12T16:49:35.791Z,0.00
2023-05-12T16:52:03.718Z,0.00
2023-05-12T16:54:33.526Z,0.00
2023-05-12T16:57:03.190Z,0.00
2023-05-12T16:59:32.539Z,0.00
2023-05-12T17:02:01.404Z,0.00
2023-05-12T17:04:29.410Z,0.10
2023-05-12T17:06:57.914Z,0.05
2023-05-12T17:09:25.930Z,0.00
2023-05-12T17:11:56.994Z,0.00
2023-05-12T17:14:24.952Z,0.00
2023-05-12T17:16:59.505Z,0.00
2023-05-12T17:19:30.955Z,0.00
2023-05-12T17:21:59.021Z,0.00
2023-05-12T17:24:28.081Z,0.10
2023-05-12T17:26:57.693Z,0.00
2023-05-12T17:29:25.988Z,0.10
2023-05-12T17:31:54.480Z,0.00
2023-05-12T17:34:25.458Z,0.00
2023-05-12T17:36:53.257Z,0.00
2023-05-12T17:39:21.566Z,0.10
2023-05-12T17:41:50.538Z,0.10
2023-05-12T17:44:23.679Z,0.10
2023-05-12T17:46:51.596Z,0.10
2023-05-12T17:49:32.986Z,0.10
2023-05-12T17:52:02.238Z,0.10
2023-05-12T17:54:30.118Z,0.00
2023-05-12T17:57:00.262Z,0.10
2023-05-12T17:59:31.093Z,0.10
2023-05-12T18:01:59.155Z,0.10
2023-05-12T18:04:30.231Z,0.10
2023-05-12T18:06:59.467Z,0.10
2023-05-12T18:09:28.614Z,0.10
2023-05-12T18:11:56.654Z,0.13
2023-05-12T18:14:24.520Z,0.10
2023-05-12T18:16:54.983Z,0.10
2023-05-12T18:19:23.367Z,0.10
2023-05-12T18:21:51.981Z,0.10
2023-05-12T18:24:19.951Z,0.10
2023-05-12T18:26:48.254Z,0.10
2023-05-12T18:29:16.273Z,0.10
2023-05-12T18:31:44.300Z,0.10
2023-05-12T18:34:13.759Z,0.10
2023-05-12T18:36:41.710Z,0.10
2023-05-12T18:39:16.773Z,0.10
2023-05-12T18:41:50.221Z,0.10
2023-05-12T18:44:19.156Z,0.10
2023-05-12T18:46:47.062Z,0.10
2023-05-12T18:49:16.614Z,0.10
2023-05-12T18:52:12.255Z,0.20
2023-05-12T18:54:56.590Z,0.20
2023-05-12T18:57:31.536Z,0.20
2023-05-12T19:00:06.923Z,0.17
2023-05-12T19:02:47.845Z,0.20
2023-05-12T19:05:17.567Z,0.13
2023-05-12T19:07:46.572Z,0.20
2023-05-12T19:10:14.410Z,0.20
2023-05-12T19:12:42.290Z,0.20
2023-05-12T19:15:10.955Z,0.20
2023-05-12T19:17:38.948Z,0.20
2023-05-12T19:20:08.588Z,0.20
2023-05-12T19:22:38.191Z,0.20
2023-05-12T19:25:08.107Z,0.20
2023-05-12T19:27:36.546Z,0.20
2023-05-12T19:30:05.425Z,0.20
2023-05-12T19:32:34.784Z,0.20
2023-05-12T19:35:04.906Z,0.20
2023-05-12T19:37:33.407Z,0.20
2023-05-12T19:40:02.984Z,0.20
2023-05-12T19:42:30.919Z,0.20
2023-05-12T19:45:00.798Z,0.20
2023-05-12T19:47:29.969Z,0.20
2023-05-12T19:49:58.918Z,0.23
2023-05-12T19:52:30.665Z,0.20
2023-05-12T19:54:58.839Z,0.20
2023-05-12T19:57:29.382Z,0.20
2023-05-12T19:59:59.757Z,0.20
2023-05-12T20:02:30.830Z,0.20
2023-05-12T20:05:01.039Z,0.20
2023-05-12T20:07:28.973Z,0.20
2023-05-12T20:09:57.051Z,0.20
2023-05-12T20:12:25.167Z,0.20
2023-05-12T20:14:54.492Z,0.10
2023-05-12T20:17:22.833Z,0.20
2023-05-12T20:19:50.939Z,0.20
2023-05-12T20:22:18.738Z,0.20
2023-05-12T20:24:46.851Z,0.20
2023-05-12T20:27:14.700Z,0.20
2023-05-12T20:29:42.537Z,0.20
2023-05-12T20:32:14.212Z,0.20
2023-05-12T20:34:42.362Z,0.20
2023-05-12T20:37:10.251Z,0.20
2023-05-12T20:39:38.761Z,0.20
2023-05-12T20:42:12.151Z,0.20
2023-05-12T20:44:40.010Z,0.20
2023-05-12T20:47:10.898Z,0.20
2023-05-12T20:49:40.305Z,0.10
2023-05-12T20:52:09.231Z,0.20
2023-05-12T20:54:37.246Z,0.20
2023-05-12T20:57:05.535Z,0.20
2023-05-12T20:59:34.525Z,0.20
2023-05-12T21:02:02.493Z,0.20
2023-05-12T21:04:30.813Z,0.20
2023-05-12T21:07:00.226Z,0.20
2023-05-12T21:09:28.591Z,0.30
2023-05-12T21:11:56.573Z,0.20
2023-05-12T21:14:24.432Z,0.20
2023-05-12T21:16:52.370Z,0.20
2023-05-12T21:19:20.929Z,0.20
2023-05-12T21:21:49.387Z,0.20
2023-05-12T21:24:21.084Z,0.30
2023-05-12T21:26:49.622Z,0.20
2023-05-12T21:29:17.695Z,0.20
2023-05-12T21:31:47.459Z,0.20
2023-05-12T21:34:15.778Z,0.20
2023-05-12T21:36:43.586Z,0.20
2023-05-12T21:39:11.611Z,0.20
2023-05-12T21:41:40.946Z,0.20
2023-05-12T21:44:11.100Z,0.20
2023-05-12T21:46:39.572Z,0.10
2023-05-12T21:49:07.632Z,0.20
2023-05-12T21:51:35.609Z,0.20
2023-05-12T21:54:03.951Z,0.30
2023-05-12T21:56:32.890Z,0.20
2023-05-12T21:59:02.622Z,0.20
2023-05-12T22:01:30.747Z,0.30
2023-05-12T22:03:59.631Z,0.20
2023-05-12T22:06:27.677Z,0.20
2023-05-12T22:08:55.771Z,0.30
2023-05-12T22:11:24.281Z,0.20
2023-05-12T22:13:52.274Z,0.20
2023-05-12T22:16:25.838Z,0.20
2023-05-12T22:18:59.400Z,0.20
2023-05-12T22:21:27.370Z,0.20
2023-05-12T22:23:57.886Z,0.20
2023-05-12T22:26:25.899Z,0.20
2023-05-12T22:28:54.468Z,0.30
2023-05-12T22:31:23.929Z,0.20
2023-05-12T22:33:52.083Z,0.20
2023-05-12T22:36:20.320Z,0.20
2023-05-12T22:38:48.176Z,0.20
2023-05-12T22:41:16.720Z,0.30
2023-05-12T22:43:44.809Z,0.20
2023-05-12T22:46:12.758Z,0.30
2023-05-12T22:48:42.525Z,0.20
2023-05-12T22:51:11.144Z,0.20
2023-05-12T22:53:41.391Z,0.20
2023-05-12T22:56:09.564Z,0.30
2023-05-12T22:58:38.816Z,0.30
2023-05-12T23:01:07.098Z,0.20
2023-05-12T23:03:35.229Z,0.20
2023-05-12T23:06:04.418Z,0.20
2023-05-12T23:08:32.385Z,0.20
2023-05-12T23:11:01.651Z,0.20
2023-05-12T23:13:30.850Z,0.30
2023-05-12T23:15:58.805Z,0.20
2023-05-12T23:18:27.570Z,0.20
2023-05-12T23:20:55.569Z,0.20
2023-05-12T23:23:24.904Z,0.20
2023-05-12T23:25:52.738Z,0.20
2023-05-12T23:28:20.760Z,0.20
2023-05-12T23:30:48.657Z,0.20
2023-05-12T23:33:22.431Z,0.20
2023-05-12T23:35:58.138Z,0.20
2023-05-12T23:38:41.612Z,0.20
2023-05-12T23:41:15.774Z,0.20
2023-05-12T23:43:53.628Z,0.20
2023-05-12T23:46:24.724Z,0.20
2023-05-12T23:49:08.317Z,0.20
2023-05-12T23:51:55.627Z,0.20
2023-05-12T23:54:28.850Z,0.20
2023-05-12T23:56:56.893Z,0.20
2023-05-12T23:59:24.955Z,0.20
